Time;durP1;ratioP1;P1;durP2;ratioP2;P2;SDS_P1;SDS_P2;PMS_P1;PMS_P2;Temp;Humidity;BMP_temperature;BMP_pressure;BME280_temperature;BME280_humidity;BME280_pressure;Samples;Min_cycle;Max_cycle;Signal;HPM_P1;HPM_P2
2021/09/23 00:00:46;;;;;;;37.50;34.53;;;;;;;;;;5077418;28;20451;-89
2021/09/23 00:03:31;;;;;;;41.63;38.33;;;;;;;;;;5077309;28;20460;-89
2021/09/23 00:05:59;;;;;;;42.33;38.30;;;;;;;;;;5077477;28;20416;-90
2021/09/23 00:08:27;;;;;;;42.73;39.10;;;;;;;;;;5077561;28;20408;-89
2021/09/23 00:10:55;;;;;;;40.43;37.13;;;;;;;;;;5059621;28;20449;-89
2021/09/23 00:13:24;;;;;;;41.37;37.77;;;;;;;;;;5077035;28;20456;-89
2021/09/23 00:15:52;;;;;;;43.13;39.00;;;;;;;;;;5059528;28;20902;-90
2021/09/23 00:18:21;;;;;;;39.73;36.43;;;;;;;;;;5077356;28;20479;-89
2021/09/23 00:20:49;;;;;;;39.73;36.53;;;;;;;;;;5077024;28;20416;-89
2021/09/23 00:23:17;;;;;;;42.97;39.07;;;;;;;;;;5076935;28;20936;-89
2021/09/23 00:25:45;;;;;;;40.43;36.83;;;;;;;;;;5076845;28;20409;-89
2021/09/23 00:28:13;;;;;;;44.40;40.60;;;;;;;;;;5077040;28;20411;-89
2021/09/23 00:30:40;;;;;;;45.33;41.30;;;;;;;;;;5076772;28;20462;-89
2021/09/23 00:33:08;;;;;;;47.70;43.33;;;;;;;;;;5076636;28;20437;-89
2021/09/23 00:35:37;;;;;;;46.00;41.90;;;;;;;;;;5076616;28;20457;-89
2021/09/23 00:38:04;;;;;;;46.80;42.70;;;;;;;;;;5076877;28;20486;-89
2021/09/23 00:40:31;;;;;;;45.90;41.80;;;;;;;;;;5076738;28;20458;-89
2021/09/23 00:42:59;;;;;;;47.80;43.50;;;;;;;;;;5076857;28;20441;-90
2021/09/23 00:45:26;;;;;;;49.70;45.00;;;;;;;;;;5076619;28;20443;-89
2021/09/23 00:47:53;;;;;;;46.97;42.77;;;;;;;;;;5077275;28;20464;-89
2021/09/23 00:50:22;;;;;;;46.57;42.17;;;;;;;;;;5076503;28;20426;-89
2021/09/23 00:52:51;;;;;;;48.17;43.40;;;;;;;;;;5076689;28;20412;-89
2021/09/23 00:55:19;;;;;;;49.43;44.70;;;;;;;;;;5076551;28;20431;-90
2021/09/23 00:57:46;;;;;;;44.23;40.33;;;;;;;;;;5076147;28;20459;-89
2021/09/23 01:00:15;;;;;;;43.73;39.77;;;;;;;;;;5076300;28;20475;-89
2021/09/23 01:02:42;;;;;;;50.33;45.53;;;;;;;;;;5076248;28;20831;-89
2021/09/23 01:05:10;;;;;;;49.80;45.17;;;;;;;;;;5076053;28;20460;-89
2021/09/23 01:07:38;;;;;;;44.43;40.40;;;;;;;;;;5059187;28;20448;-89
2021/09/23 01:10:08;;;;;;;48.80;44.20;;;;;;;;;;5075983;28;20413;-89
2021/09/23 01:12:35;;;;;;;47.73;43.10;;;;;;;;;;5076002;28;20431;-88
2021/09/23 01:15:03;;;;;;;48.13;43.53;;;;;;;;;;5076286;28;20497;-89
2021/09/23 01:17:30;;;;;;;45.10;41.27;;;;;;;;;;5076721;28;20484;-89
2021/09/23 01:19:57;;;;;;;45.77;41.70;;;;;;;;;;5076179;28;20431;-89
2021/09/23 01:22:26;;;;;;;45.40;41.27;;;;;;;;;;5075961;28;20420;-89
2021/09/23 01:24:54;;;;;;;44.27;40.47;;;;;;;;;;5058476;28;20475;-89
2021/09/23 01:27:21;;;;;;;44.50;40.60;;;;;;;;;;5057840;28;21014;-89
2021/09/23 01:29:49;;;;;;;44.30;40.37;;;;;;;;;;5076124;28;20426;-89
2021/09/23 01:32:19;;;;;;;45.90;41.93;;;;;;;;;;5058173;28;20462;-89
2021/09/23 01:34:46;;;;;;;47.53;43.30;;;;;;;;;;5075825;28;20446;-89
2021/09/23 01:37:14;;;;;;;49.30;44.90;;;;;;;;;;5075433;28;20476;-89
2021/09/23 01:39:43;;;;;;;48.17;43.47;;;;;;;;;;5058219;28;20423;-89
2021/09/23 01:42:10;;;;;;;48.50;44.20;;;;;;;;;;5075770;28;20773;-89
2021/09/23 01:44:38;;;;;;;46.50;42.10;;;;;;;;;;5075473;28;20457;-89
2021/09/23 01:47:05;;;;;;;47.93;43.57;;;;;;;;;;5075630;28;20815;-90
2021/09/23 01:49:32;;;;;;;46.97;43.00;;;;;;;;;;5075663;28;20408;-90
2021/09/23 01:52:00;;;;;;;48.33;43.83;;;;;;;;;;5075699;28;20404;-90
2021/09/23 01:54:28;;;;;;;46.57;42.47;;;;;;;;;;5057770;28;20494;-90
2021/09/23 01:56:57;;;;;;;48.93;44.37;;;;;;;;;;5075466;28;20485;-89
2021/09/23 01:59:25;;;;;;;47.40;42.90;;;;;;;;;;5075281;28;20514;-91
2021/09/23 02:01:52;;;;;;;46.67;42.57;;;;;;;;;;5057945;28;20438;-90
2021/09/23 02:04:20;;;;;;;48.77;44.20;;;;;;;;;;5074833;28;20996;-90
2021/09/23 02:06:47;;;;;;;48.27;43.53;;;;;;;;;;5074907;28;20444;-89
2021/09/23 02:09:15;;;;;;;48.00;43.03;;;;;;;;;;5057323;28;20837;-90
2021/09/23 02:11:42;;;;;;;47.93;43.77;;;;;;;;;;5057510;28;20430;-90
2021/09/23 02:14:11;;;;;;;47.83;43.43;;;;;;;;;;5075237;28;20790;-90
2021/09/23 02:16:39;;;;;;;49.50;44.63;;;;;;;;;;5074496;28;20436;-90
2021/09/23 02:19:06;;;;;;;48.60;44.20;;;;;;;;;;5074867;28;20481;-90
2021/09/23 02:21:33;;;;;;;49.37;44.90;;;;;;;;;;5074949;28;20419;-90
2021/09/23 02:24:01;;;;;;;48.20;43.70;;;;;;;;;;5074904;28;20815;-90
2021/09/23 02:26:28;;;;;;;47.10;42.80;;;;;;;;;;5074562;28;20440;-90
2021/09/23 02:28:56;;;;;;;47.97;43.17;;;;;;;;;;5074818;28;20404;-90
2021/09/23 02:31:25;;;;;;;48.28;43.80;;;;;;;;;;5074535;28;20449;-90
2021/09/23 02:33:52;;;;;;;48.27;43.70;;;;;;;;;;5074838;28;20260;-91
2021/09/23 02:36:20;;;;;;;47.93;43.43;;;;;;;;;;5074817;28;20465;-90
2021/09/23 02:38:47;;;;;;;48.70;44.30;;;;;;;;;;5074424;28;20477;-90
2021/09/23 02:41:14;;;;;;;47.97;43.37;;;;;;;;;;5074898;28;20453;-90
2021/09/23 02:43:42;;;;;;;49.10;44.60;;;;;;;;;;5074605;28;20786;-90
2021/09/23 02:46:09;;;;;;;49.00;44.27;;;;;;;;;;5074867;28;20445;-91
2021/09/23 02:48:38;;;;;;;50.87;46.37;;;;;;;;;;5074612;28;20479;-90
2021/09/23 02:51:08;;;;;;;46.53;42.13;;;;;;;;;;5074305;28;20440;-90
2021/09/23 02:53:36;;;;;;;49.93;45.13;;;;;;;;;;5074296;28;20442;-90
2021/09/23 02:56:03;;;;;;;48.63;44.03;;;;;;;;;;5074298;28;20437;-90
2021/09/23 02:58:30;;;;;;;49.27;44.47;;;;;;;;;;5074353;28;20484;-90
2021/09/23 03:00:58;;;;;;;50.43;45.17;;;;;;;;;;5074446;28;20850;-90
2021/09/23 03:03:25;;;;;;;51.47;46.60;;;;;;;;;;5074242;28;20836;-90
2021/09/23 03:05:54;;;;;;;51.90;46.70;;;;;;;;;;5074398;28;20906;-91
2021/09/23 03:08:23;;;;;;;47.57;42.93;;;;;;;;;;5074145;28;20423;-88
2021/09/23 03:10:50;;;;;;;49.90;44.60;;;;;;;;;;5074265;28;20461;-90
2021/09/23 03:13:18;;;;;;;50.70;45.97;;;;;;;;;;5074350;28;20433;-89
2021/09/23 03:15:45;;;;;;;54.50;49.10;;;;;;;;;;5074181;28;20411;-90
2021/09/23 03:18:12;;;;;;;53.47;48.00;;;;;;;;;;5073906;28;20823;-90
2021/09/23 03:20:42;;;;;;;53.50;48.30;;;;;;;;;;5056472;28;20440;-90
2021/09/23 03:23:11;;;;;;;50.90;45.80;;;;;;;;;;5074239;28;20416;-90
2021/09/23 03:25:38;;;;;;;51.30;46.20;;;;;;;;;;5074098;28;20418;-90
2021/09/23 03:28:06;;;;;;;54.33;48.80;;;;;;;;;;5057831;28;20457;-90
2021/09/23 03:30:35;;;;;;;51.43;46.47;;;;;;;;;;5077908;28;20452;-90
2021/09/23 03:33:02;;;;;;;53.17;47.97;;;;;;;;;;5078357;28;20451;-90
2021/09/23 03:35:30;;;;;;;54.30;49.00;;;;;;;;;;5077990;28;20787;-90
2021/09/23 03:37:58;;;;;;;58.30;52.20;;;;;;;;;;5078521;28;20463;-90
2021/09/23 03:40:27;;;;;;;54.30;48.83;;;;;;;;;;5078041;28;20499;-90
2021/09/23 03:42:54;;;;;;;52.57;47.57;;;;;;;;;;5077944;28;20442;-91
2021/09/23 03:45:23;;;;;;;52.37;47.20;;;;;;;;;;5077575;28;20494;-90
2021/09/23 03:47:50;;;;;;;52.50;47.50;;;;;;;;;;5077669;28;20440;-90
2021/09/23 03:50:18;;;;;;;53.47;47.77;;;;;;;;;;5077505;28;20932;-90
2021/09/23 03:52:47;;;;;;;57.27;51.33;;;;;;;;;;5077774;28;20845;-90
2021/09/23 03:55:15;;;;;;;59.27;53.00;;;;;;;;;;5077442;28;20930;-90
2021/09/23 03:57:44;;;;;;;55.27;49.70;;;;;;;;;;5077349;28;20450;-90
2021/09/23 04:00:13;;;;;;;57.30;50.87;;;;;;;;;;5077154;28;20909;-90
2021/09/23 04:02:41;;;;;;;53.13;47.43;;;;;;;;;;5077446;28;20482;-90
2021/09/23 04:05:09;;;;;;;53.17;47.80;;;;;;;;;;5077698;28;20466;-90
2021/09/23 04:07:36;;;;;;;52.53;47.37;;;;;;;;;;5077527;28;20788;-90
2021/09/23 04:10:04;;;;;;;53.87;48.57;;;;;;;;;;5077248;28;20432;-91
2021/09/23 04:12:31;;;;;;;56.40;50.50;;;;;;;;;;5077445;28;20801;-90
2021/09/23 04:15:00;;;;;;;55.07;49.77;;;;;;;;;;5077581;28;20454;-90
2021/09/23 04:17:28;;;;;;;53.93;48.43;;;;;;;;;;5077385;28;20481;-90
2021/09/23 04:19:55;;;;;;;52.50;47.53;;;;;;;;;;5077002;28;20441;-90
2021/09/23 04:22:22;;;;;;;52.30;46.83;;;;;;;;;;5078247;28;20423;-90
2021/09/23 04:24:50;;;;;;;52.13;46.67;;;;;;;;;;5077383;28;20427;-90
2021/09/23 04:27:17;;;;;;;51.37;46.53;;;;;;;;;;5077048;28;20435;-90
2021/09/23 04:29:45;;;;;;;52.37;47.17;;;;;;;;;;5076825;28;20445;-90
2021/09/23 04:32:15;;;;;;;53.07;47.77;;;;;;;;;;5059278;28;20453;-90
2021/09/23 04:34:42;;;;;;;50.33;45.53;;;;;;;;;;5077043;28;20411;-90
2021/09/23 04:37:10;;;;;;;55.20;49.60;;;;;;;;;;5077026;28;20411;-90
2021/09/23 04:39:37;;;;;;;55.97;49.73;;;;;;;;;;5076259;28;20447;-90
2021/09/23 04:42:05;;;;;;;53.10;47.67;;;;;;;;;;5076944;28;20803;-90
2021/09/23 04:44:32;;;;;;;56.63;50.77;;;;;;;;;;5076627;28;20563;-90
2021/09/23 04:47:02;;;;;;;53.40;48.20;;;;;;;;;;5076901;28;20751;-90
2021/09/23 04:49:31;;;;;;;64.30;54.13;;;;;;;;;;5076674;28;20477;-89
2021/09/23 04:51:59;;;;;;;56.30;50.27;;;;;;;;;;5076786;28;20772;-90
2021/09/23 04:54:26;;;;;;;55.37;49.70;;;;;;;;;;5076475;28;20427;-93
2021/09/23 04:56:53;;;;;;;56.00;48.17;;;;;;;;;;5076183;28;20440;-90
2021/09/23 04:59:21;;;;;;;56.57;50.63;;;;;;;;;;5076280;28;20466;-87
2021/09/23 05:01:48;;;;;;;55.40;49.50;;;;;;;;;;5076740;28;20451;-90
2021/09/23 05:04:16;;;;;;;55.43;49.93;;;;;;;;;;5058644;28;20452;-89
2021/09/23 05:06:46;;;;;;;56.47;50.77;;;;;;;;;;5058633;28;20485;-88
2021/09/23 05:09:13;;;;;;;55.40;49.60;;;;;;;;;;5076367;28;20778;-88
2021/09/23 05:11:41;;;;;;;51.23;45.90;;;;;;;;;;5076389;28;20459;-91
2021/09/23 05:14:08;;;;;;;53.07;47.70;;;;;;;;;;5076133;28;20423;-91
2021/09/23 05:16:36;;;;;;;53.23;47.93;;;;;;;;;;5076593;28;20419;-91
2021/09/23 05:19:03;;;;;;;51.60;46.38;;;;;;;;;;5075779;28;20492;-90
2021/09/23 05:21:31;;;;;;;54.17;48.67;;;;;;;;;;5058371;28;20206;-89
2021/09/23 05:24:00;;;;;;;54.43;48.63;;;;;;;;;;5058312;28;20492;-89
2021/09/23 05:26:28;;;;;;;52.03;46.70;;;;;;;;;;5058402;28;20427;-89
2021/09/23 05:28:55;;;;;;;52.10;46.60;;;;;;;;;;5076232;28;20432;-89
2021/09/23 05:31:23;;;;;;;52.38;47.25;;;;;;;;;;5076389;28;20452;-90
2021/09/23 05:33:50;;;;;;;55.83;49.93;;;;;;;;;;5060899;28;20605;-90
2021/09/23 05:36:17;;;;;;;56.57;50.97;;;;;;;;;;5075789;28;20427;-93
2021/09/23 05:38:45;;;;;;;54.93;49.23;;;;;;;;;;5075503;28;20520;-90
2021/09/23 05:41:14;;;;;;;54.65;48.90;;;;;;;;;;5075690;28;20449;-88
2021/09/23 05:43:41;;;;;;;53.60;47.97;;;;;;;;;;5075550;28;20198;-88
2021/09/23 05:46:09;;;;;;;54.60;49.13;;;;;;;;;;5075688;28;20415;-93
2021/09/23 05:48:36;;;;;;;55.53;49.40;;;;;;;;;;5075264;28;20429;-92
2021/09/23 05:51:03;;;;;;;55.13;49.53;;;;;;;;;;5075054;28;20440;-92
2021/09/23 05:53:31;;;;;;;54.40;48.50;;;;;;;;;;5058142;28;20423;-88
2021/09/23 05:55:58;;;;;;;54.10;48.60;;;;;;;;;;5075375;28;20848;-87
2021/09/23 05:58:27;;;;;;;56.17;50.43;;;;;;;;;;5075364;28;20450;-88
2021/09/23 06:00:55;;;;;;;56.40;50.53;;;;;;;;;;5075257;28;20436;-88
2021/09/23 06:03:22;;;;;;;57.07;51.47;;;;;;;;;;5074730;28;20878;-88
2021/09/23 06:05:51;;;;;;;54.83;49.43;;;;;;;;;;5057804;28;20408;-88
2021/09/23 06:08:19;;;;;;;55.93;50.00;;;;;;;;;;5074878;28;20841;-88
2021/09/23 06:10:46;;;;;;;56.30;50.63;;;;;;;;;;5057677;28;20910;-88
2021/09/23 06:13:14;;;;;;;57.30;51.10;;;;;;;;;;5074931;28;20904;-88
2021/09/23 06:15:43;;;;;;;53.57;48.07;;;;;;;;;;5074868;28;20440;-88
2021/09/23 06:18:11;;;;;;;58.10;51.90;;;;;;;;;;5075286;28;20484;-88
2021/09/23 06:20:38;;;;;;;56.53;50.50;;;;;;;;;;5074522;28;20475;-88
2021/09/23 06:23:06;;;;;;;55.83;50.10;;;;;;;;;;5074929;28;20438;-88
2021/09/23 06:25:36;;;;;;;57.30;51.33;;;;;;;;;;5075176;28;20585;-88
2021/09/23 06:28:04;;;;;;;54.80;49.07;;;;;;;;;;5056835;28;20432;-88
2021/09/23 06:30:31;;;;;;;55.70;50.00;;;;;;;;;;5074693;28;20437;-88
2021/09/23 06:33:00;;;;;;;54.20;48.70;;;;;;;;;;5074716;28;20407;-88
2021/09/23 06:35:28;;;;;;;55.83;50.03;;;;;;;;;;5074539;28;20408;-88
2021/09/23 06:37:55;;;;;;;52.80;47.70;;;;;;;;;;5074425;28;20468;-88
2021/09/23 06:40:22;;;;;;;54.77;49.00;;;;;;;;;;5075367;28;20473;-88
2021/09/23 06:42:50;;;;;;;52.73;47.50;;;;;;;;;;5074613;28;20838;-88
2021/09/23 06:45:17;;;;;;;53.43;47.93;;;;;;;;;;5074441;28;20448;-88
2021/09/23 06:47:45;;;;;;;53.10;47.80;;;;;;;;;;5074636;28;20485;-88
2021/09/23 06:50:14;;;;;;;50.50;45.30;;;;;;;;;;5074547;28;20419;-87
2021/09/23 06:52:42;;;;;;;52.03;47.00;;;;;;;;;;5074150;28;20420;-88
2021/09/23 06:55:10;;;;;;;49.87;45.57;;;;;;;;;;5074620;28;20424;-88
2021/09/23 06:57:37;;;;;;;51.13;46.13;;;;;;;;;;5074465;28;20445;-88
2021/09/23 07:00:05;;;;;;;48.83;44.20;;;;;;;;;;5074248;28;20467;-88
2021/09/23 07:02:32;;;;;;;48.83;44.00;;;;;;;;;;5074116;28;20451;-88
2021/09/23 07:05:00;;;;;;;47.10;42.50;;;;;;;;;;5074061;28;20464;-88
2021/09/23 07:07:28;;;;;;;48.20;43.60;;;;;;;;;;5074113;28;20441;-88
2021/09/23 07:09:56;;;;;;;45.27;40.93;;;;;;;;;;5073987;28;20412;-87
2021/09/23 07:12:23;;;;;;;45.67;41.53;;;;;;;;;;5073993;28;20889;-89
2021/09/23 07:14:50;;;;;;;43.30;39.23;;;;;;;;;;5074433;28;20444;-92
2021/09/23 07:17:18;;;;;;;43.20;39.40;;;;;;;;;;5074411;28;20433;-87
2021/09/23 07:19:45;;;;;;;43.83;39.33;;;;;;;;;;5074072;28;20459;-86
2021/09/23 07:22:13;;;;;;;40.80;36.93;;;;;;;;;;5074153;28;20442;-86
2021/09/23 07:24:42;;;;;;;38.47;34.97;;;;;;;;;;5073683;28;20474;-86
2021/09/23 07:27:09;;;;;;;40.00;36.20;;;;;;;;;;5058695;28;20481;-87
2021/09/23 07:29:37;;;;;;;39.00;35.40;;;;;;;;;;5073976;28;20449;-86
2021/09/23 07:32:05;;;;;;;37.87;34.40;;;;;;;;;;5073780;28;20475;-89
2021/09/23 07:34:33;;;;;;;38.03;34.43;;;;;;;;;;5074216;28;20489;-88
2021/09/23 07:37:00;;;;;;;37.03;33.63;;;;;;;;;;5056407;28;20809;-88
2021/09/23 07:39:27;;;;;;;35.97;32.77;;;;;;;;;;5074139;28;20448;-88
2021/09/23 07:41:56;;;;;;;35.70;32.20;;;;;;;;;;5073927;28;20438;-89
2021/09/23 07:44:24;;;;;;;35.20;32.10;;;;;;;;;;5073727;28;20469;-91
2021/09/23 07:46:54;;;;;;;35.10;32.10;;;;;;;;;;5073856;28;20454;-95
2021/09/23 07:49:22;;;;;;;33.47;30.47;;;;;;;;;;5056121;28;20463;-95
2021/09/23 07:51:49;;;;;;;36.40;33.10;;;;;;;;;;5073693;28;20424;-96
2021/09/23 07:54:17;;;;;;;35.37;32.03;;;;;;;;;;5056183;28;20427;-96
2021/09/23 07:56:45;;;;;;;34.30;31.30;;;;;;;;;;5073696;28;20393;-95
2021/09/23 07:59:13;;;;;;;34.60;31.20;;;;;;;;;;5073752;28;21029;-89
2021/09/23 08:01:41;;;;;;;33.03;30.03;;;;;;;;;;5074335;28;20921;-83
2021/09/23 08:04:08;;;;;;;34.33;31.30;;;;;;;;;;5073439;28;20504;-85
2021/09/23 08:06:36;;;;;;;32.73;29.80;;;;;;;;;;5073088;28;20413;-84
2021/09/23 08:09:03;;;;;;;34.17;30.93;;;;;;;;;;5073419;28;20452;-85
2021/09/23 08:11:31;;;;;;;33.33;30.10;;;;;;;;;;5074310;28;20437;-90
2021/09/23 08:13:59;;;;;;;32.47;29.63;;;;;;;;;;5074724;28;20428;-91
2021/09/23 08:16:27;;;;;;;30.07;27.77;;;;;;;;;;5077425;28;20765;-92
2021/09/23 08:18:55;;;;;;;32.70;29.73;;;;;;;;;;5077017;28;20473;-92
2021/09/23 08:21:22;;;;;;;32.17;29.43;;;;;;;;;;5077247;28;20912;-92
2021/09/23 08:23:51;;;;;;;30.30;27.80;;;;;;;;;;5078076;28;20464;-90
2021/09/23 08:26:18;;;;;;;31.53;28.83;;;;;;;;;;5077592;28;20906;-89
2021/09/23 08:28:46;;;;;;;30.10;27.70;;;;;;;;;;5077204;28;20492;-92
2021/09/23 08:31:16;;;;;;;30.10;27.67;;;;;;;;;;5077049;28;20460;-92
2021/09/23 08:33:45;;;;;;;29.70;27.40;;;;;;;;;;5077143;28;20408;-91
2021/09/23 08:36:13;;;;;;;28.67;26.50;;;;;;;;;;5076741;28;20446;-91
2021/09/23 08:38:40;;;;;;;29.53;27.13;;;;;;;;;;5076674;28;20435;-92
2021/09/23 08:41:08;;;;;;;31.50;28.93;;;;;;;;;;5077037;28;20828;-91
2021/09/23 08:43:35;;;;;;;29.40;26.87;;;;;;;;;;5076689;28;20422;-91
2021/09/23 08:46:04;;;;;;;30.80;28.00;;;;;;;;;;5076700;28;20456;-90
2021/09/23 08:48:32;;;;;;;27.50;25.53;;;;;;;;;;5077109;28;20449;-90
2021/09/23 08:51:01;;;;;;;29.33;27.00;;;;;;;;;;5078204;28;20475;-91
2021/09/23 08:53:28;;;;;;;31.63;29.00;;;;;;;;;;5077310;28;20429;-90
2021/09/23 08:55:56;;;;;;;29.50;26.87;;;;;;;;;;5076527;28;20449;-91
2021/09/23 08:58:24;;;;;;;28.47;25.90;;;;;;;;;;5076883;28;20424;-91
2021/09/23 09:01:02;;;;;;;26.50;24.70;;;;;;;;;;5059211;28;21023;-87
2021/09/23 09:03:32;;;;;;;29.10;26.50;;;;;;;;;;5077263;28;20452;-96
2021/09/23 09:06:04;;;;;;;27.83;25.50;;;;;;;;;;5076677;28;20439;-90
2021/09/23 09:08:33;;;;;;;29.40;26.90;;;;;;;;;;5076833;28;20414;-91
2021/09/23 09:11:01;;;;;;;28.30;26.00;;;;;;;;;;5076234;28;20918;-91
2021/09/23 09:13:33;;;;;;;29.20;26.80;;;;;;;;;;5059240;28;20485;-89
2021/09/23 09:16:06;;;;;;;27.83;25.83;;;;;;;;;;5058822;28;20481;-86
2021/09/23 09:18:33;;;;;;;26.80;24.87;;;;;;;;;;5076086;28;20445;-87
2021/09/23 09:21:03;;;;;;;26.53;24.57;;;;;;;;;;5076839;28;20478;-87
2021/09/23 09:23:33;;;;;;;28.70;26.80;;;;;;;;;;5075835;28;20415;-87
2021/09/23 09:26:01;;;;;;;28.27;26.07;;;;;;;;;;5074541;28;20409;-87
2021/09/23 09:28:28;;;;;;;27.93;25.77;;;;;;;;;;5075635;28;20415;-86
2021/09/23 09:30:56;;;;;;;26.93;24.60;;;;;;;;;;5075899;28;20446;-86
2021/09/23 09:33:26;;;;;;;26.70;24.50;;;;;;;;;;5075586;28;20924;-86
2021/09/23 09:35:53;;;;;;;26.33;24.33;;;;;;;;;;5058420;28;20420;-88
2021/09/23 09:38:23;;;;;;;27.30;25.07;;;;;;;;;;5075702;28;20466;-87
2021/09/23 09:40:55;;;;;;;26.70;24.53;;;;;;;;;;5075940;28;20518;-87
2021/09/23 09:43:23;;;;;;;26.90;24.80;;;;;;;;;;5075615;28;20904;-88
2021/09/23 09:45:51;;;;;;;27.03;24.70;;;;;;;;;;5075503;28;20437;-86
2021/09/23 09:48:29;;;;;;;27.10;25.20;;;;;;;;;;5075452;28;20447;-91
2021/09/23 09:51:01;;;;;;;28.37;26.27;;;;;;;;;;5057977;28;20413;-90
2021/09/23 09:53:29;;;;;;;26.20;24.20;;;;;;;;;;5075303;28;20483;-89
2021/09/23 09:55:57;;;;;;;26.87;24.87;;;;;;;;;;5075135;28;20414;-89
2021/09/23 09:58:25;;;;;;;25.47;23.77;;;;;;;;;;5075446;28;20414;-89
2021/09/23 10:00:53;;;;;;;27.17;25.13;;;;;;;;;;5075402;28;20457;-89
2021/09/23 10:03:20;;;;;;;25.07;23.17;;;;;;;;;;5075360;28;20413;-88
2021/09/23 10:05:48;;;;;;;25.13;23.27;;;;;;;;;;5075308;28;20947;-88
2021/09/23 10:08:15;;;;;;;27.13;25.23;;;;;;;;;;5074950;28;20439;-89
2021/09/23 10:10:45;;;;;;;25.80;23.90;;;;;;;;;;5075202;28;20419;-89
2021/09/23 10:13:12;;;;;;;24.77;23.00;;;;;;;;;;5075175;28;20807;-88
2021/09/23 10:15:40;;;;;;;26.97;24.93;;;;;;;;;;5074895;28;20414;-89
2021/09/23 10:18:07;;;;;;;28.00;25.77;;;;;;;;;;5075159;28;20406;-89
2021/09/23 10:20:35;;;;;;;26.53;24.70;;;;;;;;;;5075921;28;20834;-89
2021/09/23 10:23:02;;;;;;;25.13;23.43;;;;;;;;;;5075392;28;20420;-90
2021/09/23 10:25:32;;;;;;;26.50;24.37;;;;;;;;;;5075425;28;20435;-93
2021/09/23 10:28:03;;;;;;;24.73;22.93;;;;;;;;;;5074890;28;20411;-92
2021/09/23 10:30:31;;;;;;;26.27;24.47;;;;;;;;;;5074833;28;20483;-93
2021/09/23 10:33:00;;;;;;;28.00;25.77;;;;;;;;;;5074471;28;20433;-92
2021/09/23 10:35:29;;;;;;;26.13;24.40;;;;;;;;;;5057316;28;20451;-92
2021/09/23 10:37:57;;;;;;;28.20;26.00;;;;;;;;;;5075841;28;20421;-88
2021/09/23 10:40:26;;;;;;;26.67;24.47;;;;;;;;;;5077344;28;20470;-92
2021/09/23 10:42:54;;;;;;;24.33;22.73;;;;;;;;;;5057505;28;20474;-95
2021/09/23 10:45:27;;;;;;;26.97;24.70;;;;;;;;;;5074811;28;20449;-95
2021/09/23 10:47:55;;;;;;;27.37;25.37;;;;;;;;;;5075895;28;20433;-95
2021/09/23 10:50:24;;;;;;;28.43;26.33;;;;;;;;;;5077983;28;20400;-96
2021/09/23 10:52:54;;;;;;;26.70;24.73;;;;;;;;;;5078547;28;20457;-96
2021/09/23 10:55:22;;;;;;;25.87;23.97;;;;;;;;;;5077815;28;20511;-96
2021/09/23 10:57:50;;;;;;;26.80;24.73;;;;;;;;;;5076954;28;20893;-96
2021/09/23 11:00:18;;;;;;;24.60;22.90;;;;;;;;;;5077854;28;20991;-96
2021/09/23 11:02:47;;;;;;;25.20;23.40;;;;;;;;;;5058066;28;20423;-96
2021/09/23 11:05:15;;;;;;;26.17;24.27;;;;;;;;;;5075428;28;20448;-96
2021/09/23 11:07:44;;;;;;;27.90;25.53;;;;;;;;;;5075887;28;20423;-96
2021/09/23 11:10:14;;;;;;;26.10;24.20;;;;;;;;;;5076167;28;20509;-96
2021/09/23 11:12:42;;;;;;;26.23;24.43;;;;;;;;;;5079108;28;20426;-96
2021/09/23 11:15:11;;;;;;;28.70;26.47;;;;;;;;;;5084833;28;20444;-96
2021/09/23 11:17:41;;;;;;;27.37;25.23;;;;;;;;;;5113734;23;20452;-96
2021/09/23 11:20:11;;;;;;;26.93;25.07;;;;;;;;;;5085580;28;20455;-95
2021/09/23 11:22:40;;;;;;;27.53;25.43;;;;;;;;;;5074744;28;20834;-94
2021/09/23 11:25:09;;;;;;;25.93;24.20;;;;;;;;;;5074800;28;20439;-96
2021/09/23 11:27:37;;;;;;;27.70;25.60;;;;;;;;;;5075147;28;20421;-96
2021/09/23 11:30:05;;;;;;;27.27;25.23;;;;;;;;;;5075229;28;20412;-96
2021/09/23 11:32:32;;;;;;;27.00;25.10;;;;;;;;;;5074528;28;20420;-94
2021/09/23 11:35:01;;;;;;;27.97;25.47;;;;;;;;;;5057459;28;20477;-93
2021/09/23 11:37:30;;;;;;;26.60;24.60;;;;;;;;;;5075227;28;20409;-90
2021/09/23 11:39:58;;;;;;;28.40;26.30;;;;;;;;;;5075002;28;20459;-92
2021/09/23 11:42:29;;;;;;;28.93;26.63;;;;;;;;;;5074239;28;20455;-95
2021/09/23 11:45:05;;;;;;;28.20;25.67;;;;;;;;;;5073899;28;20460;-91
2021/09/23 11:47:32;;;;;;;27.33;25.03;;;;;;;;;;5074048;28;20440;-90
2021/09/23 11:50:00;;;;;;;26.90;24.70;;;;;;;;;;5076372;28;20457;-90
2021/09/23 11:52:33;;;;;;;25.80;24.00;;;;;;;;;;5078024;28;20410;-90
2021/09/23 11:55:01;;;;;;;27.37;25.40;;;;;;;;;;5077954;28;20442;-90
2021/09/23 11:57:29;;;;;;;26.83;24.93;;;;;;;;;;5077536;28;20409;-90
2021/09/23 11:59:58;;;;;;;27.57;25.60;;;;;;;;;;5077682;28;20458;-90
2021/09/23 12:02:26;;;;;;;25.50;23.00;;;;;;;;;;5077893;28;20922;-90
2021/09/23 12:04:54;;;;;;;25.67;23.60;;;;;;;;;;5077835;28;20439;-91
2021/09/23 12:07:22;;;;;;;26.40;24.40;;;;;;;;;;5077710;28;20509;-92
2021/09/23 12:10:04;;;;;;;27.13;25.17;;;;;;;;;;5077706;28;20442;-92
2021/09/23 12:12:32;;;;;;;26.40;24.47;;;;;;;;;;5077496;28;20527;-92
2021/09/23 12:14:59;;;;;;;27.53;25.37;;;;;;;;;;5077711;28;20410;-92
2021/09/23 12:17:27;;;;;;;25.53;23.93;;;;;;;;;;5059603;28;20471;-92
2021/09/23 12:19:55;;;;;;;26.53;24.40;;;;;;;;;;5077611;28;20431;-92
2021/09/23 12:22:30;;;;;;;26.90;25.00;;;;;;;;;;5076287;28;20462;-93
2021/09/23 12:24:57;;;;;;;28.57;26.10;;;;;;;;;;5077346;28;20424;-92
2021/09/23 12:27:27;;;;;;;28.63;26.10;;;;;;;;;;5077215;28;20409;-93
2021/09/23 12:29:56;;;;;;;28.43;26.30;;;;;;;;;;5059863;28;20925;-93
2021/09/23 12:32:31;;;;;;;28.17;26.13;;;;;;;;;;5077025;28;20441;-92
2021/09/23 12:34:59;;;;;;;28.17;26.10;;;;;;;;;;5077282;28;20447;-92
2021/09/23 12:37:26;;;;;;;26.33;24.20;;;;;;;;;;5077064;28;20452;-92
2021/09/23 12:39:54;;;;;;;28.73;26.63;;;;;;;;;;5076797;28;20455;-93
2021/09/23 12:42:22;;;;;;;28.30;26.37;;;;;;;;;;5077126;28;20436;-91
2021/09/23 12:44:58;;;;;;;28.20;26.30;;;;;;;;;;5076999;28;20471;-92
2021/09/23 12:47:26;;;;;;;27.63;25.63;;;;;;;;;;5077003;28;20419;-94
2021/09/23 12:50:05;;;;;;;27.90;25.67;;;;;;;;;;5059641;28;20440;-91
2021/09/23 12:52:37;;;;;;;29.20;26.93;;;;;;;;;;5076607;28;20415;-90
2021/09/23 12:55:06;;;;;;;30.63;28.43;;;;;;;;;;5076619;28;20494;-91
2021/09/23 12:57:34;;;;;;;28.50;26.50;;;;;;;;;;5076431;28;20935;-88
2021/09/23 13:00:07;;;;;;;29.77;27.60;;;;;;;;;;5076093;28;20422;-89
2021/09/23 13:02:35;;;;;;;27.13;25.43;;;;;;;;;;5076467;28;20405;-89
2021/09/23 13:05:05;;;;;;;28.33;26.10;;;;;;;;;;5058932;28;20792;-90
2021/09/23 13:07:39;;;;;;;28.70;26.43;;;;;;;;;;5076466;28;20504;-90
2021/09/23 13:10:09;;;;;;;28.50;26.33;;;;;;;;;;5076539;28;20460;-90
2021/09/23 13:12:40;;;;;;;28.57;26.60;;;;;;;;;;5076517;28;20413;-89
2021/09/23 13:15:21;;;;;;;27.60;25.60;;;;;;;;;;5076395;28;20429;-90
2021/09/23 13:18:05;;;;;;;29.10;27.00;;;;;;;;;;5076061;28;20483;-90
2021/09/23 13:20:33;;;;;;;28.93;26.93;;;;;;;;;;5076240;28;20957;-90
2021/09/23 13:23:01;;;;;;;28.63;26.67;;;;;;;;;;5076293;28;20443;-90
2021/09/23 13:25:28;;;;;;;29.57;27.57;;;;;;;;;;5076129;28;20463;-88
2021/09/23 13:27:56;;;;;;;31.87;29.47;;;;;;;;;;5075845;28;20441;-90
2021/09/23 13:30:25;;;;;;;29.90;27.80;;;;;;;;;;5077284;28;20451;-90
2021/09/23 13:32:52;;;;;;;29.03;27.17;;;;;;;;;;5075779;28;20438;-90
2021/09/23 13:35:19;;;;;;;30.20;27.97;;;;;;;;;;5076188;28;20979;-91
2021/09/23 13:37:48;;;;;;;31.47;29.13;;;;;;;;;;5075986;28;20442;-90
2021/09/23 13:40:16;;;;;;;31.40;29.00;;;;;;;;;;5075844;28;20437;-90
2021/09/23 13:42:43;;;;;;;32.53;29.60;;;;;;;;;;5076070;28;20841;-90
2021/09/23 13:45:12;;;;;;;30.67;28.33;;;;;;;;;;5075390;28;20474;-90
2021/09/23 13:47:40;;;;;;;29.20;26.80;;;;;;;;;;5072225;28;20447;-90
2021/09/23 13:50:09;;;;;;;33.20;30.27;;;;;;;;;;5057405;28;20419;-90
2021/09/23 13:52:37;;;;;;;31.03;28.63;;;;;;;;;;5055878;28;20423;-90
2021/09/23 13:55:05;;;;;;;30.53;28.27;;;;;;;;;;5055662;28;20439;-90
2021/09/23 13:57:33;;;;;;;31.33;29.03;;;;;;;;;;5055445;28;20441;-90
2021/09/23 14:00:01;;;;;;;33.07;30.80;;;;;;;;;;5055498;28;20422;-90
2021/09/23 14:02:28;;;;;;;33.23;30.60;;;;;;;;;;5055030;28;20488;-90
2021/09/23 14:04:57;;;;;;;32.27;29.83;;;;;;;;;;5037612;28;20422;-91
2021/09/23 14:07:25;;;;;;;33.20;30.63;;;;;;;;;;5055471;28;20422;-91
2021/09/23 14:09:52;;;;;;;32.27;29.80;;;;;;;;;;5055101;28;20438;-90
2021/09/23 14:12:19;;;;;;;33.17;30.50;;;;;;;;;;5055086;28;20467;-90
2021/09/23 14:14:47;;;;;;;32.47;30.10;;;;;;;;;;5055745;28;20423;-87
2021/09/23 14:17:14;;;;;;;33.13;30.43;;;;;;;;;;5055700;28;20463;-90
2021/09/23 14:19:41;;;;;;;34.30;31.53;;;;;;;;;;5037509;28;20447;-90
2021/09/23 14:22:10;;;;;;;32.83;30.53;;;;;;;;;;5055145;28;20491;-90